Time;durP1;ratioP1;P1;durP2;ratioP2;P2;SDS_P1;SDS_P2;PMS_P1;PMS_P2;Temp;Humidity;BMP_temperature;BMP_pressure;BME280_temperature;BME280_humidity;BME280_pressure;Samples;Min_cycle;Max_cycle;Signal;HPM_P1;HPM_P2
2024/01/17 00:01:14;;;;;;;0.40;0.40;;;;;;;-0.71;100.00;100725.53;5042573;28;20053;-79
2024/01/17 00:03:40;;;;;;;1.08;1.08;;;;;;;-1.14;100.00;100646.13;5054637;28;20060;-78
2024/01/17 00:06:07;;;;;;;31.98;15.63;;;;;;;-0.38;100.00;100758.09;5051615;28;20124;-77
2024/01/17 00:08:33;;;;;;;0.40;0.40;;;;;;;-1.10;100.00;100666.09;5042824;28;20036;-76
2024/01/17 00:11:00;;;;;;;1.20;1.20;;;;;;;-0.54;100.00;100748.69;5047741;28;20056;-76
2024/01/17 00:13:25;;;;;;;2.05;1.95;;;;;;;-0.55;100.00;100777.88;5048719;28;20049;-76
2024/01/17 00:15:51;;;;;;;0.30;0.30;;;;;;;-0.59;100.00;100751.03;5048295;28;20053;-75
2024/01/17 00:18:16;;;;;;;13.18;12.00;;;;;;;-1.03;100.00;100749.69;5024316;28;20156;-76
2024/01/17 00:20:42;;;;;;;0.50;0.50;;;;;;;-0.89;100.00;100722.94;5040849;28;20029;-76
2024/01/17 00:23:07;;;;;;;0.70;0.70;;;;;;;-0.58;100.00;100758.00;5039726;28;20504;-77
2024/01/17 00:25:32;;;;;;;1.15;1.00;;;;;;;-0.79;100.00;100751.75;5039865;28;20408;-77
2024/01/17 00:27:58;;;;;;;0.30;0.30;;;;;;;-0.86;100.00;100720.53;5047666;28;20448;-76
2024/01/17 00:30:25;;;;;;;0.68;0.68;;;;;;;-0.97;100.00;100744.84;5051247;28;20053;-77
2024/01/17 00:32:50;;;;;;;0.30;0.30;;;;;;;-1.37;100.00;100692.97;5046294;28;20032;-77
2024/01/17 00:35:16;;;;;;;0.40;0.40;;;;;;;-0.71;100.00;100759.03;5046048;28;20044;-76
2024/01/17 00:37:41;;;;;;;0.40;0.40;;;;;;;-1.27;100.00;100666.91;5050347;28;20128;-76
2024/01/17 00:40:08;;;;;;;0.75;0.75;;;;;;;-1.50;100.00;100625.44;5054121;28;20485;-77
2024/01/17 00:42:34;;;;;;;0.40;0.40;;;;;;;-0.64;100.00;100778.28;5051721;28;20048;-78
2024/01/17 00:44:59;;;;;;;0.30;0.30;;;;;;;-0.79;100.00;100738.88;5051745;28;20040;-76
2024/01/17 00:47:25;;;;;;;2.03;1.92;;;;;;;-1.32;100.00;100651.22;5045925;28;20699;-78
2024/01/17 00:49:51;;;;;;;0.30;0.30;;;;;;;-0.97;100.00;100683.03;5045878;28;20053;-78
2024/01/17 00:52:16;;;;;;;3.78;3.60;;;;;;;-0.58;100.00;100754.53;5051056;28;20040;-77
2024/01/17 00:54:42;;;;;;;0.80;0.80;;;;;;;-1.86;100.00;100536.94;5044819;28;20048;-76
2024/01/17 00:57:09;;;;;;;2.33;2.15;;;;;;;-1.08;100.00;100655.84;5062935;28;20083;-76
2024/01/17 00:59:34;;;;;;;0.98;0.98;;;;;;;-0.82;100.00;100710.34;5060074;28;20472;-76
2024/01/17 01:02:01;;;;;;;0.57;0.57;;;;;;;-1.12;100.00;100661.66;5039844;28;20574;-76
2024/01/17 01:04:27;;;;;;;2.28;2.10;;;;;;;-1.20;100.00;100645.81;5046487;28;20045;-76
2024/01/17 01:06:53;;;;;;;1.75;1.65;;;;;;;-0.67;100.00;100750.66;5025642;28;20098;-77
2024/01/17 01:09:18;;;;;;;0.40;0.40;;;;;;;-1.30;100.00;100702.78;5047616;28;20132;-76
2024/01/17 01:11:44;;;;;;;4.25;4.05;;;;;;;-1.13;100.00;100722.56;5037047;28;20044;-77
2024/01/17 01:14:10;;;;;;;0.43;0.43;;;;;;;-1.60;100.00;100630.00;5043739;28;20532;-78
2024/01/17 01:16:35;;;;;;;0.30;0.30;;;;;;;-1.33;100.00;100662.31;5039399;28;20128;-75
2024/01/17 01:19:01;;;;;;;0.30;0.30;;;;;;;-0.74;100.00;100761.47;5039520;28;20086;-76
2024/01/17 01:21:26;;;;;;;0.60;0.60;;;;;;;-1.58;100.00;100636.13;5038978;28;20114;-77
2024/01/17 01:23:52;;;;;;;0.52;0.50;;;;;;;-1.61;100.00;100621.41;5041252;28;20080;-78
2024/01/17 01:26:17;;;;;;;0.30;0.30;;;;;;;-1.33;100.00;100676.91;5032802;28;20480;-77
2024/01/17 01:28:43;;;;;;;11.98;5.25;;;;;;;-0.89;100.00;100740.06;5039160;28;20079;-77
2024/01/17 01:31:09;;;;;;;0.40;0.40;;;;;;;-1.85;100.00;100609.81;5038139;28;20080;-82
2024/01/17 01:33:35;;;;;;;0.30;0.30;;;;;;;-0.96;100.00;100723.44;5041988;28;20079;-78
2024/01/17 01:36:00;;;;;;;0.30;0.30;;;;;;;-1.06;100.00;100710.88;5036915;28;20044;-79
2024/01/17 01:38:26;;;;;;;0.40;0.40;;;;;;;-1.14;100.00;100704.47;5038660;28;20037;-78
2024/01/17 01:40:51;;;;;;;0.50;0.50;;;;;;;-0.96;100.00;100735.41;5041798;28;20045;-77
2024/01/17 01:43:21;;;;;;;0.30;0.30;;;;;;;-1.65;100.00;100640.06;5037997;28;20049;-77
2024/01/17 01:46:13;;;;;;;3.80;3.60;;;;;;;-1.17;100.00;100755.78;5038424;28;20500;-79
2024/01/17 01:48:40;;;;;;;0.80;0.77;;;;;;;-1.25;100.00;100749.38;5039595;28;20128;-79
2024/01/17 01:51:06;;;;;;;4.53;4.32;;;;;;;-1.96;100.00;100622.13;5039995;28;20099;-80
2024/01/17 01:53:33;;;;;;;0.57;0.57;;;;;;;-1.34;100.00;100754.91;5039728;28;20033;-78
2024/01/17 01:55:59;;;;;;;2.88;2.72;;;;;;;-1.94;100.00;100638.53;5047637;28;20398;-80
2024/01/17 01:58:25;;;;;;;0.88;0.88;;;;;;;-1.86;100.00;100644.94;5042570;28;20095;-77
2024/01/17 02:00:54;;;;;;;0.30;0.30;;;;;;;-1.28;100.00;100768.97;5040768;28;20056;-78
2024/01/17 02:03:24;;;;;;;0.32;0.32;;;;;;;-1.45;100.00;100719.97;5052988;28;20057;-76
2024/01/17 02:05:50;;;;;;;0.30;0.30;;;;;;;-1.85;100.00;100669.88;5042220;28;20033;-77
2024/01/17 02:08:16;;;;;;;0.52;0.52;;;;;;;-2.15;100.00;100638.25;5042483;28;20052;-76
2024/01/17 02:10:41;;;;;;;1.17;1.17;;;;;;;-1.37;100.00;100760.78;5041625;28;20562;-77
2024/01/17 02:13:07;;;;;;;3.47;3.30;;;;;;;-1.32;100.00;100749.03;5044791;28;20302;-77
2024/01/17 02:15:33;;;;;;;0.35;0.35;;;;;;;-1.40;100.00;100752.03;5045168;28;20155;-77
2024/01/17 02:17:59;;;;;;;2.78;2.67;;;;;;;-1.95;100.00;100660.75;5050924;28;20393;-77
2024/01/17 02:20:25;;;;;;;2.13;2.03;;;;;;;-1.44;100.00;100732.94;5047478;28;20039;-79
2024/01/17 02:22:51;;;;;;;0.40;0.40;;;;;;;-2.12;100.00;100651.25;5046393;28;20052;-77
2024/01/17 02:25:16;;;;;;;0.30;0.30;;;;;;;-1.37;100.00;100768.50;5042298;28;20375;-77
2024/01/17 02:27:42;;;;;;;2.60;2.50;;;;;;;-1.62;100.00;100703.66;5049846;28;20045;-77
2024/01/17 02:30:08;;;;;;;7.97;7.45;;;;;;;-1.30;100.00;100760.28;5050014;28;20479;-78
2024/01/17 02:32:35;;;;;;;1.48;1.38;;;;;;;-1.46;100.00;100759.41;5046652;28;20029;-77
2024/01/17 02:35:02;;;;;;;0.50;0.50;;;;;;;-1.88;100.00;100666.25;5054509;28;20495;-78
2024/01/17 02:37:27;;;;;;;0.30;0.30;;;;;;;-1.78;100.00;100695.13;5049785;28;20040;-76
2024/01/17 02:39:53;;;;;;;0.35;0.35;;;;;;;-1.98;100.00;100682.88;5043499;28;20098;-77
2024/01/17 02:42:19;;;;;;;0.30;0.30;;;;;;;-1.89;100.00;100692.78;5046278;28;20059;-76
2024/01/17 02:44:44;;;;;;;2.45;2.35;;;;;;;-1.98;100.00;100682.88;5030839;28;20034;-77
2024/01/17 02:47:10;;;;;;;1.35;1.35;;;;;;;-1.88;100.00;100700.56;5043318;28;20081;-78
2024/01/17 02:49:35;;;;;;;0.52;0.52;;;;;;;-1.44;100.00;100739.78;5043683;28;20505;-77
2024/01/17 02:52:01;;;;;;;2.70;2.60;;;;;;;-2.14;100.00;100651.16;5046317;28;20044;-78
2024/01/17 02:54:26;;;;;;;1.42;1.33;;;;;;;-1.64;100.00;100721.59;5053722;28;20045;-77
2024/01/17 02:56:52;;;;;;;2.50;2.40;;;;;;;-2.09;100.00;100633.44;5019484;28;20037;-79
2024/01/17 02:59:18;;;;;;;0.40;0.40;;;;;;;-2.19;100.00;100639.75;5052928;28;20076;-78
2024/01/17 03:01:46;;;;;;;1.02;1.02;;;;;;;-1.85;100.00;100717.84;5054830;28;20545;-77
2024/01/17 03:04:11;;;;;;;1.42;1.35;;;;;;;-2.22;100.00;100657.59;5044545;28;20489;-77
2024/01/17 03:06:37;;;;;;;28.50;14.10;;;;;;;-1.61;100.00;100738.88;5049163;28;20080;-79
2024/01/17 03:09:03;;;;;;;1.10;1.05;;;;;;;-2.01;100.00;100651.84;5062854;28;20029;-78
2024/01/17 03:11:29;;;;;;;0.40;0.40;;;;;;;-1.98;100.00;100660.59;5061899;28;20036;-76
2024/01/17 03:13:55;;;;;;;0.40;0.40;;;;;;;-2.18;100.00;100650.91;5057758;28;20049;-77
2024/01/17 03:16:21;;;;;;;5.95;5.70;;;;;;;-1.58;100.00;100742.50;5045780;28;20523;-76
2024/01/17 03:18:46;;;;;;;1.38;1.30;;;;;;;-1.52;100.00;100734.22;5048108;28;20080;-78
2024/01/17 03:21:13;;;;;;;3.20;3.10;;;;;;;-1.49;100.00;100750.69;5049417;28;20048;-78
2024/01/17 03:23:39;;;;;;;0.50;0.50;;;;;;;-1.53;100.00;100742.75;5055646;28;20098;-79
2024/01/17 03:26:04;;;;;;;0.77;0.77;;;;;;;-2.08;100.00;100652.31;5042338;28;20497;-78
2024/01/17 03:28:30;;;;;;;0.82;0.82;;;;;;;-2.12;100.00;100638.41;5048957;28;20052;-77
2024/01/17 03:30:55;;;;;;;0.30;0.30;;;;;;;-1.73;100.00;100691.09;5055903;28;20045;-78
2024/01/17 03:33:21;;;;;;;1.35;1.30;;;;;;;-1.53;100.00;100724.72;5052099;28;20053;-77
2024/01/17 03:35:46;;;;;;;0.40;0.40;;;;;;;-1.81;100.00;100684.66;5052554;28;20035;-79
2024/01/17 03:38:12;;;;;;;9.43;8.77;;;;;;;-1.97;100.00;100662.41;5053018;28;20045;-78
2024/01/17 03:40:37;;;;;;;0.43;0.43;;;;;;;-1.45;100.00;100746.63;5040018;28;20487;-77
2024/01/17 03:43:03;;;;;;;0.65;0.60;;;;;;;-2.09;100.00;100628.28;5044453;28;20056;-78
2024/01/17 03:45:28;;;;;;;1.85;1.75;;;;;;;-1.54;100.00;100744.44;5042446;28;20045;-78
2024/01/17 03:47:54;;;;;;;0.50;0.50;;;;;;;-1.41;100.00;100748.53;5050196;28;20056;-78
2024/01/17 03:50:19;;;;;;;10.15;9.50;;;;;;;-1.63;100.00;100704.47;5046602;28;20072;-79
2024/01/17 03:52:45;;;;;;;0.80;0.80;;;;;;;-1.42;100.00;100749.34;5047975;28;20799;-79
2024/01/17 03:55:10;;;;;;;11.70;10.95;;;;;;;-1.35;100.00;100750.56;5047942;28;20106;-78
2024/01/17 03:57:36;;;;;;;1.10;1.10;;;;;;;-1.60;100.00;100709.78;5029880;28;20530;-79
2024/01/17 04:00:07;;;;;;;0.40;0.40;;;;;;;-1.58;100.00;100728.75;5046255;28;20056;-79
2024/01/17 04:02:32;;;;;;;0.40;0.40;;;;;;;-1.62;100.00;100730.25;5052269;28;20053;-79
2024/01/17 04:04:58;;;;;;;0.40;0.40;;;;;;;-1.44;100.00;100765.50;5056755;28;20057;-77
2024/01/17 04:07:23;;;;;;;0.40;0.40;;;;;;;-2.13;100.00;100650.38;5056983;28;20049;-77
2024/01/17 04:09:49;;;;;;;2.50;2.42;;;;;;;-2.52;100.00;100583.97;5031292;28;20136;-78
2024/01/17 04:12:14;;;;;;;0.40;0.40;;;;;;;-2.06;100.00;100762.16;5030584;28;20071;-77
2024/01/17 04:14:40;;;;;;;2.20;1.33;;;;;;;-1.92;100.00;100722.66;5051734;28;20078;-78
2024/01/17 04:17:06;;;;;;;0.30;0.30;;;;;;;-1.63;100.00;100737.91;5026543;28;20048;-77
2024/01/17 04:19:31;;;;;;;0.50;0.50;;;;;;;-1.85;100.00;100740.97;5049122;28;20412;-77
2024/01/17 04:21:57;;;;;;;0.82;0.73;;;;;;;-2.14;100.00;100669.16;5052719;28;20499;-77
2024/01/17 04:24:26;;;;;;;0.35;0.35;;;;;;;-1.60;100.00;100758.66;5045771;28;20053;-78
2024/01/17 04:26:57;;;;;;;2.15;2.05;;;;;;;-2.30;100.00;100657.97;5051469;28;20109;-78
2024/01/17 04:29:23;;;;;;;3.75;3.60;;;;;;;-1.72;100.00;100776.88;5057767;28;20064;-77
2024/01/17 04:31:50;;;;;;;1.27;1.25;;;;;;;-2.87;100.00;100647.06;5066605;28;20349;-77
2024/01/17 04:34:15;;;;;;;0.50;0.50;;;;;;;-2.62;100.00;100680.19;5066330;28;20056;-77
2024/01/17 04:36:41;;;;;;;0.65;0.65;;;;;;;-3.07;100.00;100689.53;5060101;28;20051;-78
2024/01/17 04:39:08;;;;;;;38.70;30.48;;;;;;;-2.73;100.00;100799.38;5064687;28;20661;-78
2024/01/17 04:41:34;;;;;;;1.42;0.90;;;;;;;-2.93;100.00;100798.16;5074843;28;20101;-78
2024/01/17 04:44:00;;;;;;;0.40;0.40;;;;;;;-3.20;100.00;100772.63;5050623;28;20055;-78
2024/01/17 04:46:27;;;;;;;2.28;2.17;;;;;;;-3.82;100.00;100670.50;5068036;28;20058;-77
2024/01/17 04:48:52;;;;;;;0.50;0.50;;;;;;;-3.73;100.00;100694.13;5064658;28;20131;-77
2024/01/17 04:51:21;;;;;;;0.45;0.45;;;;;;;-3.93;100.00;100676.66;5068807;28;20120;-79
2024/01/17 04:53:48;;;;;;;0.52;0.52;;;;;;;-2.61;100.00;100802.66;5063110;28;20037;-77
2024/01/17 04:56:15;;;;;;;0.65;0.65;;;;;;;-2.49;100.00;100798.22;5062110;28;20079;-78
2024/01/17 04:58:43;;;;;;;1.20;1.20;;;;;;;-2.92;100.00;100695.56;5064785;28;20538;-78
2024/01/17 05:01:09;;;;;;;0.40;0.40;;;;;;;-2.34;100.00;100803.41;5057297;28;20123;-78
2024/01/17 05:03:34;;;;;;;5.95;5.68;;;;;;;-2.29;100.00;100798.53;5062792;28;20052;-78
2024/01/17 05:06:01;;;;;;;1.55;1.48;;;;;;;-2.90;100.00;100700.78;5061159;28;20052;-78
2024/01/17 05:08:27;;;;;;;0.40;0.40;;;;;;;-3.09;100.00;100679.19;5062358;28;20041;-77
2024/01/17 05:10:52;;;;;;;1.05;1.05;;;;;;;-2.70;100.00;100723.38;5056889;28;20047;-76
2024/01/17 05:13:18;;;;;;;0.80;0.77;;;;;;;-2.37;100.00;100788.66;5070391;28;20044;-77
2024/01/17 05:15:43;;;;;;;0.40;0.40;;;;;;;-2.13;100.00;100830.31;5066703;28;20044;-76
2024/01/17 05:18:09;;;;;;;3.15;2.95;;;;;;;-2.69;100.00;100719.13;5061665;28;21167;-77
2024/01/17 05:20:35;;;;;;;0.75;0.75;;;;;;;-2.72;100.00;100737.81;5065156;28;20040;-79
2024/01/17 05:23:00;;;;;;;0.30;0.30;;;;;;;-2.58;100.00;100795.13;5070256;28;20063;-77
2024/01/17 05:25:26;;;;;;;0.68;0.68;;;;;;;-2.88;100.00;100715.50;5036541;28;21666;-77
2024/01/17 05:27:52;;;;;;;1.85;1.75;;;;;;;-2.79;100.00;100716.03;5059304;28;20515;-79
2024/01/17 05:30:25;;;;;;;2.67;2.58;;;;;;;-2.66;100.00;100734.72;5062058;28;20127;-76
2024/01/17 05:32:51;;;;;;;0.40;0.40;;;;;;;-2.39;100.00;100784.22;5066812;28;20476;-78
2024/01/17 05:35:17;;;;;;;9.93;9.27;;;;;;;-2.72;100.00;100740.38;5068588;28;20044;-78
2024/01/17 05:37:43;;;;;;;0.60;0.60;;;;;;;-2.02;100.00;100840.31;5062448;28;20071;-77
2024/01/17 05:40:10;;;;;;;3.67;3.33;;;;;;;-2.27;100.00;100809.75;5060867;28;20627;-77
2024/01/17 05:42:38;;;;;;;0.40;0.40;;;;;;;-2.23;100.00;100796.28;5064938;28;20577;-76
2024/01/17 05:45:05;;;;;;;0.50;0.50;;;;;;;-2.33;100.00;100802.59;5065644;28;20477;-77
2024/01/17 05:47:30;;;;;;;1.77;1.70;;;;;;;-2.99;100.00;100755.94;5065893;28;20036;-78
2024/01/17 05:49:57;;;;;;;6.85;5.72;;;;;;;-2.63;100.00;100842.78;5054019;28;20049;-77
2024/01/17 05:52:23;;;;;;;0.50;0.50;;;;;;;-3.01;100.00;100743.81;5066513;28;20393;-78
2024/01/17 05:54:49;;;;;;;2.03;1.88;;;;;;;-2.36;100.00;100861.50;5068429;28;20041;-77
2024/01/17 05:57:15;;;;;;;0.40;0.40;;;;;;;-2.24;100.00;100828.81;5065245;28;20491;-78
2024/01/17 05:59:40;;;;;;;0.60;0.60;;;;;;;-2.48;100.00;100769.19;5068290;28;20846;-77
2024/01/17 06:02:06;;;;;;;2.40;2.30;;;;;;;-2.85;100.00;100722.50;5059359;28;20456;-80
2024/01/17 06:04:33;;;;;;;0.43;0.43;;;;;;;-2.62;100.00;100764.94;5061480;28;20385;-77
2024/01/17 06:07:01;;;;;;;0.40;0.40;;;;;;;-2.99;100.00;100730.25;5060080;28;20056;-78
2024/01/17 06:09:26;;;;;;;1.85;1.75;;;;;;;-2.02;100.00;100871.19;5066464;28;20064;-75
2024/01/17 06:11:52;;;;;;;1.95;1.85;;;;;;;-1.91;100.00;100878.72;5061791;28;20614;-74
2024/01/17 06:14:17;;;;;;;0.50;0.50;;;;;;;-2.53;100.00;100773.16;5054309;28;20045;-74
2024/01/17 06:16:44;;;;;;;4.30;4.10;;;;;;;-1.93;100.00;100864.00;5069901;28;20045;-75
2024/01/17 06:19:10;;;;;;;10.50;9.75;;;;;;;-2.00;100.00;100861.88;5063687;28;20136;-74
2024/01/17 06:21:35;;;;;;;0.40;0.40;;;;;;;-2.64;100.00;100751.13;5055831;28;20134;-74
2024/01/17 06:24:01;;;;;;;0.40;0.40;;;;;;;-2.05;100.00;100861.59;5077020;28;20124;-74
2024/01/17 06:26:28;;;;;;;5.10;4.80;;;;;;;-2.42;100.00;100748.97;5075469;28;20048;-74
2024/01/17 06:28:54;;;;;;;11.70;4.78;;;;;;;-2.41;100.00;100745.63;5075334;28;20605;-74
2024/01/17 06:31:25;;;;;;;4.57;4.30;;;;;;;-1.87;100.00;100817.16;5074679;28;20044;-74
2024/01/17 06:33:53;;;;;;;0.98;0.98;;;;;;;-2.31;100.00;100734.19;5075809;28;20044;-74
2024/01/17 06:36:19;;;;;;;0.50;0.50;;;;;;;-1.64;100.00;100841.59;5079899;28;20044;-73
2024/01/17 06:38:45;;;;;;;1.05;1.05;;;;;;;-1.68;100.00;100821.69;5080973;28;20036;-74
2024/01/17 06:41:11;;;;;;;2.08;1.98;;;;;;;-1.64;100.00;100803.00;5073445;28;20040;-74
2024/01/17 06:43:36;;;;;;;0.40;0.40;;;;;;;-2.54;100.00;100712.31;5059254;28;20511;-74
2024/01/17 06:46:03;;;;;;;7.20;5.18;;;;;;;-2.62;100.00;100734.13;5062572;28;20039;-73
2024/01/17 06:48:29;;;;;;;2.15;2.05;;;;;;;-2.60;100.00;100741.09;5073016;28;20048;-74
2024/01/17 06:50:55;;;;;;;0.40;0.40;;;;;;;-2.50;100.00;100759.63;5076458;28;20036;-74
2024/01/17 06:53:21;;;;;;;0.50;0.50;;;;;;;-1.94;100.00;100827.13;5071256;28;20492;-75
2024/01/17 06:55:47;;;;;;;2.30;2.20;;;;;;;-1.94;100.00;100827.13;5070827;28;20070;-74
2024/01/17 06:58:13;;;;;;;0.30;0.30;;;;;;;-1.92;100.00;100799.81;5074480;28;20048;-75
2024/01/17 07:00:38;;;;;;;1.50;1.40;;;;;;;-1.96;100.00;100818.44;5071906;28;20113;-75
2024/01/17 07:03:04;;;;;;;3.65;3.50;;;;;;;-1.99;100.00;100836.25;5069985;28;20032;-74
2024/01/17 07:05:29;;;;;;;0.50;0.50;;;;;;;-1.88;100.00;100828.25;5080554;28;20036;-75
2024/01/17 07:07:55;;;;;;;1.50;1.40;;;;;;;-1.59;100.00;100827.31;5074136;28;20474;-74
2024/01/17 07:10:23;;;;;;;0.75;0.75;;;;;;;-2.62;100.00;100705.88;5069459;28;20044;-74
2024/01/17 07:12:50;;;;;;;4.93;4.53;;;;;;;-1.76;100.00;100809.25;5077923;28;20071;-73
2024/01/17 07:15:16;;;;;;;9.82;9.32;;;;;;;-1.55;100.00;100837.84;5049912;28;20048;-74
2024/01/17 07:17:42;;;;;;;0.38;0.38;;;;;;;-2.28;100.00;100718.91;5073305;28;20035;-73
2024/01/17 07:20:08;;;;;;;4.22;4.03;;;;;;;-1.88;100.00;100839.41;5071958;28;20445;-74
2024/01/17 07:22:41;;;;;;;1.48;1.38;;;;;;;-1.85;100.00;100829.34;5069778;28;20049;-73
2024/01/17 07:25:10;;;;;;;2.65;2.55;;;;;;;-1.61;100.00;100852.97;5056794;28;20628;-75
2024/01/17 07:27:39;;;;;;;2.45;2.35;;;;;;;-1.65;100.00;100843.28;5074023;28;20103;-74
2024/01/17 07:30:05;;;;;;;4.63;4.43;;;;;;;-2.08;100.00;100760.25;5074241;28;20064;-75
2024/01/17 07:32:31;;;;;;;19.17;16.10;;;;;;;-2.05;100.00;100751.06;5082111;28;20077;-75
2024/01/17 07:34:57;;;;;;;0.40;0.40;;;;;;;-2.06;100.00;100718.44;5054154;28;20052;-74
2024/01/17 07:37:22;;;;;;;0.75;0.75;;;;;;;-1.73;100.00;100834.28;5078095;28;20059;-75
2024/01/17 07:39:48;;;;;;;1.02;0.98;;;;;;;-2.13;100.00;100731.75;5075364;28;20499;-74
2024/01/17 07:42:14;;;;;;;0.50;0.50;;;;;;;-2.65;100.00;100660.31;5081192;28;20031;-75
2024/01/17 07:44:40;;;;;;;0.70;0.70;;;;;;;-1.80;100.00;100802.19;5070103;28;20041;-74
2024/01/17 07:47:05;;;;;;;0.40;0.40;;;;;;;-1.68;100.00;100809.69;5072216;28;20121;-74
2024/01/17 07:49:36;;;;;;;0.68;0.68;;;;;;;-1.60;100.00;100820.41;5070918;28;20056;-75
2024/01/17 07:52:02;;;;;;;4.70;4.43;;;;;;;-1.61;100.00;100804.09;5079752;28;20052;-74
2024/01/17 07:54:27;;;;;;;15.32;14.50;;;;;;;-1.43;100.00;100806.75;5080992;28;20545;-74
2024/01/17 07:56:53;;;;;;;0.75;0.75;;;;;;;-1.34;100.00;100806.38;5071157;28;20378;-75
2024/01/17 07:59:18;;;;;;;0.40;0.40;;;;;;;-1.79;100.00;100697.59;5069986;28;20468;-74
2024/01/17 08:01:44;;;;;;;0.60;0.60;;;;;;;-1.71;100.00;100728.09;5074704;28;20612;-74
2024/01/17 08:04:09;;;;;;;9.07;8.57;;;;;;;-1.70;100.00;100714.41;5068796;28;20075;-74
2024/01/17 08:06:35;;;;;;;0.95;0.80;;;;;;;-1.32;100.00;100776.47;5071076;28;20055;-74
2024/01/17 08:09:02;;;;;;;2.25;1.88;;;;;;;-1.73;100.00;100716.84;5079084;28;20060;-75
2024/01/17 08:11:28;;;;;;;1.55;1.52;;;;;;;-1.16;100.00;100801.34;5067852;28;20041;-75
2024/01/17 08:13:54;;;;;;;15.80;14.43;;;;;;;-1.04;100.00;100794.25;5073664;28;20047;-75
2024/01/17 08:16:20;;;;;;;0.70;0.70;;;;;;;-1.05;100.00;100810.53;5072086;28;20057;-74
2024/01/17 08:18:46;;;;;;;1.38;1.15;;;;;;;-1.10;100.00;100794.81;5076184;28;20048;-74
2024/01/17 08:21:12;;;;;;;0.70;0.70;;;;;;;-1.00;100.00;100813.34;5038263;28;20709;-74
2024/01/17 08:23:38;;;;;;;0.93;0.93;;;;;;;-0.84;100.00;100787.59;5077463;28;20402;-74
2024/01/17 08:26:04;;;;;;;1.95;1.85;;;;;;;-0.85;100.00;100793.53;5063928;28;20052;-75
2024/01/17 08:28:29;;;;;;;8.93;8.18;;;;;;;-1.32;100.00;100689.81;5066723;28;20048;-74
2024/01/17 08:30:55;;;;;;;0.60;0.60;;;;;;;-1.36;100.00;100666.41;5056431;28;20549;-74
2024/01/17 08:33:20;;;;;;;0.70;0.70;;;;;;;-0.88;100.00;100780.50;5073076;28;20045;-74
2024/01/17 08:35:47;;;;;;;8.95;8.00;;;;;;;-0.77;100.00;100788.75;5064993;28;20132;-74
2024/01/17 08:38:13;;;;;;;5.45;5.22;;;;;;;-0.73;100.00;100772.66;5072583;28;20048;-74
2024/01/17 08:40:39;;;;;;;2.20;2.10;;;;;;;-0.61;100.00;100747.50;5059350;28;20517;-74
2024/01/17 08:43:05;;;;;;;18.73;16.83;;;;;;;-0.88;100.00;100690.34;5065365;28;20127;-75
2024/01/17 08:45:30;;;;;;;10.30;9.77;;;;;;;-0.29;100.00;100807.53;5078503;28;20460;-73
2024/01/17 08:47:56;;;;;;;2.15;1.95;;;;;;;-0.32;100.00;100779.03;5064566;28;20040;-75
2024/01/17 08:50:21;;;;;;;14.57;13.43;;;;;;;-0.82;100.00;100684.59;5068591;28;20471;-75
2024/01/17 08:52:48;;;;;;;1.15;1.05;;;;;;;-0.57;100.00;100700.47;5077652;28;20131;-74
2024/01/17 08:55:13;;;;;;;15.00;14.15;;;;;;;0.40;100.00;100816.06;5044278;28;20060;-74
2024/01/17 08:57:39;;;;;;;5.57;2.70;;;;;;;0.38;100.00;100797.91;5071254;28;20040;-74
2024/01/17 09:00:06;;;;;;;2.05;1.95;;;;;;;0.23;100.00;100801.44;5066801;28;20048;-75
2024/01/17 09:02:31;;;;;;;13.55;12.57;;;;;;;0.25;100.00;100786.94;5055257;28;20750;-74
2024/01/17 09:04:57;;;;;;;2.80;2.58;;;;;;;0.05;100.00;100694.00;5063116;28;20051;-74
2024/01/17 09:07:23;;;;;;;7.38;6.95;;;;;;;0.52;100.00;100785.66;5065999;28;20796;-74
2024/01/17 09:09:49;;;;;;;16.00;14.65;;;;;;;0.46;100.00;100746.63;5073189;28;20454;-74
2024/01/17 09:12:17;;;;;;;0.93;0.85;;;;;;;0.80;100.00;100768.84;5067282;28;20535;-74
2024/01/17 09:14:43;;;;;;;20.85;17.88;;;;;;;0.77;100.00;100768.69;5061609;28;20055;-74
2024/01/17 09:17:09;;;;;;;2.85;2.75;;;;;;;0.79;100.00;100749.84;5060791;28;20044;-74
2024/01/17 09:19:35;;;;;;;2.05;1.88;;;;;;;1.08;100.00;100757.13;5053603;28;20048;-74
2024/01/17 09:22:00;;;;;;;2.35;1.88;;;;;;;0.81;100.00;100729.25;5057928;28;20863;-74
2024/01/17 09:24:26;;;;;;;0.50;0.50;;;;;;;0.44;100.00;100663.06;5068213;28;20060;-74
2024/01/17 09:26:52;;;;;;;3.95;2.53;;;;;;;1.12;100.00;100735.78;5048848;28;20530;-74
2024/01/17 09:29:19;;;;;;;4.65;4.20;;;;;;;1.28;100.00;100740.78;5069984;28;20052;-74
2024/01/17 09:31:45;;;;;;;0.40;0.40;;;;;;;1.01;100.00;100691.41;5076461;28;20509;-74
2024/01/17 09:34:11;;;;;;;1.42;1.38;;;;;;;1.24;100.00;100710.44;5068685;28;20044;-75
2024/01/17 09:36:36;;;;;;;0.30;0.30;;;;;;;0.83;100.00;100601.94;5074776;28;20055;-75
2024/01/17 09:39:02;;;;;;;3.80;3.60;;;;;;;1.41;100.00;100696.53;5063866;28;20040;-74
2024/01/17 09:41:28;;;;;;;2.45;2.35;;;;;;;1.32;100.00;100701.31;5068891;28;20058;-74
2024/01/17 09:43:53;;;;;;;3.90;1.52;;;;;;;0.68;100.00;100591.00;5070466;28;20052;-74
2024/01/17 09:46:19;;;;;;;0.52;0.52;;;;;;;1.10;100.00;100641.78;5073612;28;20048;-74
2024/01/17 09:48:46;;;;;;;0.50;0.50;;;;;;;0.90;100.00;100603.09;5047732;28;20048;-74
2024/01/17 09:51:18;;;;;;;11.20;8.50;;;;;;;1.63;100.00;100687.94;5070820;28;20036;-75
2024/01/17 09:53:45;;;;;;;2.25;2.15;;;;;;;1.02;100.00;100605.31;5071465;28;20028;-74
2024/01/17 09:56:12;;;;;;;1.35;1.25;;;;;;;1.56;100.00;100696.28;5075873;28;20058;-75
2024/01/17 09:58:41;;;;;;;1.52;1.48;;;;;;;1.60;100.00;100676.59;5054440;28;20460;-75
2024/01/17 10:01:09;;;;;;;1.70;1.65;;;;;;;1.33;100.00;100660.84;5050309;28;20392;-75
2024/01/17 10:03:38;;;;;;;6.15;5.78;;;;;;;0.99;100.00;100579.34;5067357;28;20071;-76
2024/01/17 10:06:05;;;;;;;13.40;12.32;;;;;;;1.54;100.00;100672.06;5074364;28;20073;-75
2024/01/17 10:08:33;;;;;;;0.82;0.82;;;;;;;1.42;100.00;100606.94;5074312;28;20039;-74
2024/01/17 10:10:58;;;;;;;0.75;0.75;;;;;;;1.84;100.00;100684.44;5076846;28;20074;-74
2024/01/17 10:13:24;;;;;;;0.77;0.77;;;;;;;1.96;100.00;100689.22;5065310;28;20551;-73
2024/01/17 10:15:49;;;;;;;2.13;2.03;;;;;;;1.91;100.00;100681.28;5070589;28;20452;-75
2024/01/17 10:18:15;;;;;;;4.90;4.65;;;;;;;1.81;100.00;100661.06;5080341;28;20577;-74
2024/01/17 10:20:42;;;;;;;2.63;2.42;;;;;;;2.19;100.00;100677.19;5075117;28;20610;-74
2024/01/17 10:23:09;;;;;;;5.82;5.53;;;;;;;2.70;100.00;100675.63;5076200;28;20483;-74
2024/01/17 10:25:40;;;;;;;8.98;8.45;;;;;;;2.42;100.00;100590.88;5060154;28;20045;-74
2024/01/17 10:28:07;;;;;;;0.70;0.70;;;;;;;2.71;100.00;100601.38;5063822;28;20060;-75
2024/01/17 10:30:33;;;;;;;0.40;0.40;;;;;;;2.26;100.00;100565.25;5077642;28;20041;-74
2024/01/17 10:32:59;;;;;;;0.63;0.63;;;;;;;2.73;100.00;100652.41;5068451;28;20059;-74
2024/01/17 10:35:25;;;;;;;1.40;1.33;;;;;;;2.56;100.00;100622.44;5080654;28;20066;-74
2024/01/17 10:37:52;;;;;;;1.65;1.55;;;;;;;2.24;100.00;100559.13;5082166;28;20044;-74
2024/01/17 10:40:19;;;;;;;0.50;0.50;;;;;;;3.13;100.00;100638.22;5084761;28;20043;-74
2024/01/17 10:42:44;;;;;;;5.90;5.63;;;;;;;3.34;100.00;100643.25;5073921;28;20056;-74
2024/01/17 10:45:20;;;;;;;0.98;0.98;;;;;;;3.02;100.00;100612.78;5080977;28;20131;-74
2024/01/17 10:47:46;;;;;;;4.68;4.43;;;;;;;2.88;100.00;100615.81;5076022;28;20094;-74
2024/01/17 10:50:12;;;;;;;9.00;8.15;;;;;;;2.70;100.00;100522.78;5060088;28;20044;-74
2024/01/17 10:52:41;;;;;;;6.25;5.95;;;;;;;3.75;100.00;100596.13;5072346;28;20480;-73
2024/01/17 10:55:10;;;;;;;2.75;0.98;;;;;;;3.59;100.00;100615.53;5070881;28;20041;-74
2024/01/17 10:57:41;;;;;;;1.42;1.38;;;;;;;3.63;100.00;100619.97;5080614;28;20100;-75
2024/01/17 11:00:11;;;;;;;3.05;2.85;;;;;;;3.38;100.00;100506.78;5074743;28;20086;-73
2024/01/17 11:02:40;;;;;;;0.82;0.82;;;;;;;3.70;100.00;100592.47;5073984;28;20496;-74
2024/01/17 11:05:11;;;;;;;0.50;0.50;;;;;;;2.74;100.00;100428.78;5073343;28;20159;-74
2024/01/17 11:07:37;;;;;;;0.68;0.68;;;;;;;3.36;100.00;100506.72;5074433;28;20055;-75
2024/01/17 11:10:05;;;;;;;2.15;2.05;;;;;;;3.53;100.00;100543.53;5070468;28;20098;-74
2024/01/17 11:12:36;;;;;;;1.50;1.48;;;;;;;3.41;100.00;100524.16;5066079;28;20079;-75